Station: Yunta

  Atmospheric Gas Attenuation - ITU Rec 676-11   --------------- db/100km ---------------
Date Time Temp RH % AH g/m3 Dew Point Wind Direction Speed kph Gust kph Barometer mB Rainfall Since 9am 24GHz 47GHz 76GHz 122GHz 134GHz 241GHz
03 08:50 15.4 57 7.49 7.1 20 24 1013.1 0 17.2 23.7 34.7 90.9 82.3 282.4
03 08:40 14.6 58 7.26 6.6 13 17 1013.1 0 16.7 23.6 34.2 89.5 80.3 275.2
03 08:30 14.7 59 7.43 6.8 17 24 1017.9 0 17.1 24.0 35.0 91.6 82.7 283.4
03 08:20 14.4 60 7.42 6.9 17 20 1013.1 0 17.0 23.9 34.9 91.4 82.5 282.9
03 08:10 13.9 62 7.43 6.7 17 20 1013.1 0 17.1 24.0 35.2 92.1 83.2 285.1
03 08:00 13.3 63 7.28 6.4 20 28 1018.1 0 16.8 24.1 35.0 91.7 82.2 281.8
03 07:50 13.5 63 7.37 6.6 20 26 1013.1 0 17.0 24.0 35.1 91.9 82.8 283.9
03 07:40 13.2 64 7.35 6.5 19 22 1013.1 0 16.9 24.1 35.2 92.0 82.9 284.1
03 07:30 12.9 65 7.33 6.5 20 30 1018.2 0 16.9 24.3 35.4 92.7 83.3 285.5
03 07:20 12.8 63 7.06 6.1 24 28 1013.1 0 16.3 23.7 34.2 89.5 79.6 272.6
03 07:10 12.8 65 7.28 6.4 17 22 1013.1 0 16.8 24.1 35.1 91.8 82.4 282.4
03 07:00 12.8 65 7.28 6.4 20 30 1018 0 16.8 24.2 35.3 92.3 82.8 283.6
03 06:50 12.4 65 7.1 6 19 22 1013.1 0 16.4 23.9 34.5 90.4 80.5 275.8
03 06:40 12.4 66 7.21 6.2 19 20 1013.1 0 16.7 24.1 35.0 91.5 81.9 280.7
03 06:30 11.9 67 7.1 6 19 28 1018.1 0 16.5 24.2 35.0 91.4 81.4 278.7
03 06:20 11.9 66 6.99 5.9 19 20 1013.1 0 16.2 23.9 34.3 89.8 79.7 272.6
03 06:10 11.8 68 7.16 6.1 20 24 1013.1 0 16.6 24.1 35.0 91.7 81.9 280.6
03 06:00 11.7 68 7.11 6 20 30 1017.4 0 16.5 24.3 35.1 91.7 81.7 279.7
03 05:50 11.7 68 7.11 6 20 26 1013.1 0 16.5 24.1 34.9 91.3 81.4 278.7
03 05:40 11.8 68 7.16 6.1 24 26 1013.1 0 16.6 24.1 35.0 91.7 81.9 280.6
03 05:30 11.8 68 7.16 6.1 20 28 1017.2 0 16.6 24.3 35.2 92.1 82.2 281.5
03 05:20 11.8 69 7.26 6.3 20 24 1013.1 0 16.8 24.3 35.4 92.7 83.2 285.1
03 05:00 12 69 7.35 6.5 20 28 1017.2 0 17.0 24.5 35.9 93.8 84.5 289.4
03 04:50 12 67 7.14 6.2 22 26 1013.1 0 16.6 24.1 34.9 91.3 81.5 279.0
03 04:40 12.1 67 7.19 6.3 19 22 1013.1 0 16.7 24.1 35.0 91.7 82.0 280.8
03 04:30 12.2 68 7.34 6.5 22 32 1017 0 17.0 24.5 35.7 93.5 84.1 288.2
03 04:20 12.3 66 7.17 6.1 20 28 1013.1 0 16.6 24.0 34.9 91.2 81.5 279.2
03 04:10 12.5 68 7.48 6.7 24 28 1013.1 0 17.3 24.5 36.0 94.2 85.3 292.5
03 04:00 12.5 68 7.48 6.8 24 32 1017 0 17.3 24.6 36.1 94.6 85.6 293.4
03 03:50 12.6 68 7.52 6.8 26 32 1013.1 0 17.3 24.5 36.1 94.5 85.7 293.9
03 03:40 12.7 68 7.57 6.9 22 30 1013.1 0 17.4 24.6 36.2 94.9 86.2 295.8
03 03:30 12.9 67 7.55 6.9 20 30 1017.2 0 17.4 24.6 36.2 94.9 86.1 295.1
03 03:20 13 66 7.49 6.8 20 24 1013.1 0 17.3 24.3 35.8 93.7 84.9 291.1
03 03:10 13.3 64 7.39 6.8 20 26 1013.1 0 17.0 24.1 35.3 92.3 83.3 285.5
03 03:00 13.4 65 7.56 7 20 33 1016.8 0 17.4 24.5 36.0 94.3 85.6 293.6
03 02:50 13.7 63 7.46 6.8 19 24 1013.1 0 17.2 24.1 35.4 92.6 83.8 287.2
03 02:40 13.7 62 7.34 6.5 22 28 1013.1 0 16.9 23.9 34.9 91.4 82.2 281.9
03 02:30 13.8 61 7.27 6.4 20 28 1017.3 0 16.8 23.9 34.8 90.9 81.5 279.4
03 02:20 13.9 59 7.07 6.2 22 26 1013.1 0 16.3 23.5 33.8 88.4 78.6 269.3
03 02:10 14.1 59 7.16 6.2 24 32 1013.1 0 16.5 23.5 34.0 89.1 79.6 272.6
03 02:00 14.5 61 7.59 7.1 19 28 1017.1 0 17.4 24.2 35.7 93.4 84.8 291.0
03 01:50 14.6 60 7.51 6.9 20 24 1013.1 0 17.2 23.9 35.2 92.1 83.4 286.1
03 01:40 14.8 60 7.6 7.1 20 26 1013.1 0 17.4 24.0 35.4 92.7 84.3 289.4
03 01:30 15 60 7.69 7.3 24 30 1017.1 0 17.6 24.3 35.8 93.8 85.5 293.6
03 01:20 15.5 59 7.8 7.5 17 20 1013.1 0 17.8 24.2 35.9 94.0 86.1 295.6
03 01:10 15.8 58 7.81 7.5 24 28 1013.1 0 17.8 24.1 35.8 93.7 85.9 294.9
03 01:00 16.1 57 7.81 7.6 22 32 1017 0 17.8 24.1 35.8 93.7 85.8 294.8
03 00:50 16.3 56 7.77 7.7 24 28 1013.1 0 17.7 23.9 35.4 92.7 84.8 291.4
03 00:40 16.6 56 7.91 7.8 22 30 1013.1 0 18.0 24.0 35.8 93.8 86.3 296.3
03 00:30 17.1 55 8.01 8 24 35 1017.2 0 18.2 24.2 36.1 94.6 87.2 299.8
03 00:20 17.6 53 7.95 7.9 26 33 1013.1 0 18.0 23.8 35.5 93.0 85.7 294.4
03 00:10 18.2 51 7.93 7.9 24 30 1013.1 0 18.0 23.6 35.2 92.1 84.8 291.3
03 00:00 18.6 48 7.64 7.4 20 32 1016.9 0 17.3 23.2 34.1 89.2 81.1 278.6
02 23:50 18.8 47 7.57 7.5 17 20 1013.1 0 17.2 23.0 33.6 88.0 79.8 274.1
02 23:40 19 48 7.82 7.7 20 26 1013.1 0 17.7 23.3 34.4 90.1 82.6 283.8
02 23:30 19.2 48 7.91 7.9 15 24 1016.8 0 17.9 23.5 34.8 91.1 83.7 287.8
02 23:20 19.5 48 8.06 8.2 17 22 1013.1 0 18.2 23.5 35.1 91.9 85.0 292.1
02 23:10 19.9 46 7.9 7.9 17 20 1013.1 0 17.8 23.2 34.3 89.9 82.6 284.0
02 23:00 20.2 40 6.99 6.2 22 32 1016.3 0 15.9 21.9 31.1 81.3 72.0 246.6
02 22:50 20.5 37 6.58 5.3 28 30 1013.1 0 15.0 21.1 29.5 77.0 66.9 228.8
02 22:40 21 33 6.04 4.1 19 22 1013.1 0 13.9 20.3 27.5 71.7 60.5 206.5
02 22:30 21.4 32 6 4 28 39 1015.9 0 13.8 20.3 27.3 71.2 59.9 204.5
02 22:20 21.8 31 5.95 4.3 24 26 1013.1 0 13.7 20.0 27.0 70.2 59.0 201.1
02 22:10 22.3 33 6.52 5.2 26 30 1013.1 0 14.8 20.7 28.7 74.8 64.7 221.5
02 22:00 22.5 34 6.79 5.9 28 37 1015.4 0 15.4 21.1 29.6 77.2 67.7 231.8
02 21:50 22.7 35 7.07 6.8 26 30 1013.1 0 16.0 21.3 30.3 79.3 70.5 241.6
02 21:40 23 37 7.6 7.5 28 35 1013.1 0 17.1 22.0 32.0 83.8 76.1 261.5
02 21:30 23.5 38 8.04 8.4 28 41 1015 0 18.0 22.5 33.4 87.5 80.7 277.7
02 21:20 23.9 37 8 8.3 35 41 1013.1 0 17.9 22.3 33.0 86.5 79.7 274.3
02 21:10 24.4 36 8.01 8.7 33 39 1013.1 0 17.9 22.2 32.9 86.1 79.4 273.1
02 21:00 25 37 8.52 9.3 28 41 1014.4 0 18.9 22.8 34.4 90.2 84.6 291.4
02 20:50 25.4 36 8.48 9.2 26 33 1013.1 0 18.8 22.6 34.1 89.3 83.6 288.1
02 20:40 26.1 35 8.57 9.4 26 32 1013.1 0 19.0 22.6 34.1 89.4 83.9 289.2
02 20:30 26.3 35 8.66 9.6 22 32 1013.8 0 19.1 22.7 34.3 90.0 84.8 292.2
02 20:20 26.6 33 8.31 9.4 24 30 1013.1 0 18.4 22.1 33.0 86.5 80.5 277.4
02 20:10 27.2 33 8.59 9.5 28 35 1013.1 0 18.9 22.3 33.7 88.4 83.0 286.1
02 20:00 27.5 33 8.73 9.8 26 37 1013.2 0 19.2 22.5 34.0 89.3 84.2 290.5
02 19:50 27.9 31 8.38 9.6 26 32 1013.1 0 18.5 21.9 32.7 85.8 80.0 275.7
02 19:40 28.2 32 8.8 9.9 28 30 1013.1 0 19.3 22.4 34.0 89.2 84.3 290.7
02 19:30 28.6 31 8.71 9.8 28 41 1012.6 0 19.1 22.1 33.5 87.9 82.8 285.8
02 19:20 29.5 30 8.86 10.1 30 33 1013.1 0 19.4 22.1 33.7 88.3 83.6 288.5
02 19:10 30.3 28 8.63 10.2 33 39 1013.1 0 18.9 21.7 32.6 85.5 80.3 277.1
02 19:00 31.1 27 8.69 9.9 22 35 1011.9 0 19.0 21.5 32.4 85.1 80.1 276.4
02 18:50 31.3 26 8.46 9.5 19 20 1013.1 0 18.5 21.2 31.7 83.0 77.6 267.6
02 18:40 32.1 23 7.81 8.3 19 20 1013.1 0 17.1 20.2 29.4 76.9 70.2 241.8
02 18:30 32 20 6.75 6.2 28 35 1011.5 0 15.0 18.9 26.2 68.3 59.7 204.9
02 18:20 32.6 21 7.32 7.4 24 28 1013.1 0 16.1 19.5 27.7 72.5 64.9 223.3
02 18:10 32.8 19 6.69 6.1 33 39 1013.1 0 14.8 18.7 25.8 67.3 58.7 201.2
02 18:00 33.3 19 6.87 6.6 28 41 1011.1 0 15.2 18.8 26.1 68.2 59.9 205.8
02 17:50 33.1 20 7.16 7.1 28 30 1013.1 0 15.8 19.2 27.1 70.8 63.0 216.5
02 17:40 33.5 20 7.31 7.4 35 43 1013.1 0 16.1 19.3 27.4 71.6 64.1 220.6
02 17:30 33.9 18 6.72 6.3 30 41 1010.8 0 14.8 18.5 25.5 66.5 58.1 199.3
02 17:20 34.4 17 6.52 5.8 35 39 1013.1 0 14.4 18.2 24.8 64.8 56.0 191.9
02 17:10 34.5 20 7.71 8.2 33 41 1013.1 0 16.8 19.6 28.3 73.9 67.3 231.6
02 17:00 34.9 19 7.48 7.9 33 44 1010.5 0 16.3 19.2 27.4 71.6 64.6 222.2
02 16:50 34.8 19 7.44 7.7 33 41 1013.1 0 16.3 19.2 27.4 71.6 64.4 221.6
02 16:40 35.6 19 7.75 8.4 43 50 1013.1 0 16.9 19.4 28.0 73.3 66.8 230.0
02 16:30 36.5 13 5.56 3.7 39 50 1010.4 0 12.4 16.7 21.6 56.1 45.9 156.6
02 16:20 36.7 12 5.18 2.6 48 56 1013.1 0 11.6 16.3 20.6 53.5 42.6 145.0
02 16:10 36.9 12 5.24 2.8 44 54 1013.1 0 11.7 16.3 20.7 53.8 43.0 146.5

Last Refresh: 03-Dec-2021 09:03:21

Bureau of Meteorology